Time;durP1;ratioP1;P1;durP2;ratioP2;P2;SDS_P1;SDS_P2;PMS_P1;PMS_P2;Temp;Humidity;BMP_temperature;BMP_pressure;BME280_temperature;BME280_humidity;BME280_pressure;Samples;Min_cycle;Max_cycle;Signal;HPM_P1;HPM_P2
2021/01/24 00:00:54;;;;;;;13.60;11.67;;;;;;;-144.99;98.87;52537.78;5000581;28;21283;-77
2021/01/24 00:03:21;;;;;;;18.20;11.03;;;;;;;-144.99;98.80;52554.09;5002666;28;20711;-77
2021/01/24 00:05:47;;;;;;;16.23;11.90;;;;;;;-144.99;98.86;52513.31;5007194;28;21062;-77
2021/01/24 00:08:14;;;;;;;17.80;12.03;;;;;;;-144.99;98.84;52554.09;5000202;28;20866;-77
2021/01/24 00:10:41;;;;;;;16.60;13.27;;;;;;;-144.99;98.79;52533.69;5006998;28;20752;-76
2021/01/24 00:13:07;;;;;;;17.48;13.20;;;;;;;-144.99;98.56;52566.31;4656651;28;10000519;-75
2021/01/24 00:15:34;;;;;;;17.53;12.70;;;;;;;-144.99;98.51;52533.69;5004678;28;20230;-78
2021/01/24 00:18:01;;;;;;;14.47;12.10;;;;;;;-144.99;98.21;52554.09;5005875;28;20772;-75
2021/01/24 00:20:27;;;;;;;21.23;13.73;;;;;;;-144.99;98.18;52490.91;5004604;28;21141;-76
2021/01/24 00:22:53;;;;;;;22.57;15.00;;;;;;;-144.99;98.21;52545.94;5001940;28;20728;-76
2021/01/24 00:25:19;;;;;;;17.47;12.33;;;;;;;-144.99;98.32;52513.31;5009958;28;20760;-76
2021/01/24 00:27:46;;;;;;;16.43;11.57;;;;;;;-144.99;98.44;52574.47;5003543;28;21060;-76
2021/01/24 00:30:13;;;;;;;13.10;10.93;;;;;;;-144.99;98.46;52541.84;5009221;28;20693;-76
2021/01/24 00:32:40;;;;;;;15.73;11.00;;;;;;;-144.99;98.55;52566.31;5008605;28;20638;-77
2021/01/24 00:35:08;;;;;;;13.33;11.93;;;;;;;-144.99;98.63;52511.28;5004394;28;20689;-76
2021/01/24 00:37:34;;;;;;;17.00;11.90;;;;;;;-144.99;98.52;52509.25;5008362;28;20713;-76
2021/01/24 00:40:00;;;;;;;15.17;11.83;;;;;;;-144.99;98.68;52525.56;4998157;28;20736;-77
2021/01/24 00:42:26;;;;;;;14.93;13.27;;;;;;;-144.99;98.61;52456.25;5008208;28;20668;-75
2021/01/24 00:44:52;;;;;;;13.30;11.57;;;;;;;-144.99;98.94;52537.78;5007082;28;20784;-77
2021/01/24 00:47:18;;;;;;;17.50;13.07;;;;;;;-144.99;99.02;52523.50;5001247;28;20660;-76
2021/01/24 00:49:46;;;;;;;15.00;12.83;;;;;;;-144.99;98.93;52525.56;4998273;28;20720;-76
2021/01/24 00:52:12;;;;;;;24.17;15.67;;;;;;;-144.99;99.13;52525.56;5010147;28;21167;-75
2021/01/24 00:54:38;;;;;;;17.20;13.40;;;;;;;-144.99;99.19;52523.50;5002795;28;21099;-75
2021/01/24 00:57:05;;;;;;;21.13;14.83;;;;;;;-144.99;99.31;52515.34;5002952;28;20705;-76
2021/01/24 00:59:31;;;;;;;18.07;13.23;;;;;;;-144.99;99.34;52521.47;4997121;28;20698;-75
2021/01/24 01:01:57;;;;;;;20.23;13.90;;;;;;;-144.99;99.28;52488.84;5004995;28;20642;-76
2021/01/24 01:04:24;;;;;;;17.17;12.63;;;;;;;-144.99;99.28;52529.63;5000645;28;20626;-76
2021/01/24 01:06:51;;;;;;;17.80;13.93;;;;;;;-144.99;99.13;52511.28;5001637;28;20647;-76
2021/01/24 01:09:17;;;;;;;19.30;13.53;;;;;;;-144.99;98.95;52527.59;5005025;28;20783;-76
2021/01/24 01:11:44;;;;;;;21.80;16.97;;;;;;;-144.99;99.43;52523.50;5006235;28;21103;-76
2021/01/24 01:14:10;;;;;;;17.50;13.60;;;;;;;-144.99;99.32;52527.59;5005659;28;21098;-75
2021/01/24 01:16:36;;;;;;;18.23;13.60;;;;;;;-144.99;99.51;52519.44;5005734;28;20676;-75
2021/01/24 01:19:03;;;;;;;23.07;14.67;;;;;;;-144.99;99.48;52527.59;5001327;28;20657;-73
2021/01/24 01:21:29;;;;;;;25.70;17.57;;;;;;;-144.99;99.41;52574.47;5007063;28;20634;-75
2021/01/24 01:23:56;;;;;;;26.33;18.70;;;;;;;-144.99;99.39;52521.47;5006092;28;20687;-75
2021/01/24 01:26:22;;;;;;;21.30;14.30;;;;;;;-144.99;99.31;52521.47;5002017;28;20720;-77
2021/01/24 01:28:48;;;;;;;19.03;12.10;;;;;;;-144.99;99.45;52523.50;4999105;28;20646;-76
2021/01/24 01:31:14;;;;;;;17.20;12.83;;;;;;;-144.99;99.51;52562.25;5004760;28;20649;-76
2021/01/24 01:33:40;;;;;;;15.57;11.67;;;;;;;-144.99;99.58;52529.63;5006529;28;20772;-76
2021/01/24 01:36:07;;;;;;;16.47;13.67;;;;;;;-144.99;99.53;52527.59;5003690;28;20658;-76
2021/01/24 01:38:33;;;;;;;16.30;11.50;;;;;;;-144.99;99.64;52564.28;5003308;28;20687;-76
2021/01/24 01:41:00;;;;;;;16.77;12.07;;;;;;;-144.99;99.73;52550.00;4998133;28;20650;-77
2021/01/24 01:43:26;;;;;;;14.63;11.07;;;;;;;-144.99;99.65;52527.59;5001772;28;20668;-76
2021/01/24 01:45:52;;;;;;;16.43;12.87;;;;;;;-144.99;99.64;52537.78;5004871;28;20634;-76
2021/01/24 01:48:19;;;;;;;17.90;12.07;;;;;;;-144.99;99.66;52517.41;5005201;28;21341;-77
2021/01/24 01:50:45;;;;;;;23.67;12.60;;;;;;;-144.99;99.93;52521.47;4999732;28;20715;-77
2021/01/24 01:53:11;;;;;;;15.73;11.67;;;;;;;-144.99;99.86;52566.31;5006864;28;20668;-76
2021/01/24 01:55:37;;;;;;;17.67;12.20;;;;;;;-144.99;99.93;52550.00;5002427;28;20669;-77
2021/01/24 01:58:05;;;;;;;13.77;10.13;;;;;;;-144.99;99.91;52484.78;5006504;28;20634;-76
2021/01/24 02:00:31;;;;;;;15.97;12.33;;;;;;;-144.99;99.89;52525.56;5007652;28;20665;-78
2021/01/24 02:03:25;;;;;;;24.10;15.60;;;;;;;-144.99;99.88;52509.25;5008433;28;20690;-77
2021/01/24 02:05:57;;;;;;;17.90;12.07;;;;;;;-144.99;99.90;52519.44;5006924;28;20732;-76
2021/01/24 02:08:31;;;;;;;17.90;12.80;;;;;;;-144.99;100.00;52497.00;5005442;28;20774;-77
2021/01/24 02:11:05;;;;;;;19.30;15.23;;;;;;;-144.99;100.00;52503.13;5005974;28;20748;-77
2021/01/24 02:13:42;;;;;;;18.23;13.97;;;;;;;-144.99;100.00;52499.06;5008662;28;20629;-77
2021/01/24 02:16:09;;;;;;;15.33;11.83;;;;;;;-144.99;100.00;52511.28;5000619;28;20661;-76
2021/01/24 02:18:39;;;;;;;16.23;11.57;;;;;;;-144.99;100.00;52492.94;5003957;28;20637;-76
2021/01/24 02:21:12;;;;;;;16.60;12.10;;;;;;;-144.99;100.00;52554.09;5008202;28;20716;-77
2021/01/24 02:23:41;;;;;;;18.93;12.80;;;;;;;-144.99;100.00;52525.56;5006622;28;20641;-77
2021/01/24 02:26:12;;;;;;;22.60;12.77;;;;;;;-144.99;100.00;52554.09;4999388;28;20747;-76
2021/01/24 02:28:55;;;;;;;17.53;12.60;;;;;;;-144.99;100.00;52509.25;5004294;28;20670;-77
2021/01/24 02:31:26;;;;;;;17.83;12.03;;;;;;;-144.99;100.00;52543.91;5003045;28;20626;-77
2021/01/24 02:33:54;;;;;;;14.10;12.47;;;;;;;-144.99;100.00;52525.56;4998891;28;20713;-76
2021/01/24 02:36:21;;;;;;;15.80;11.97;;;;;;;-144.99;100.00;52517.41;5001541;28;21270;-77
2021/01/24 02:38:48;;;;;;;18.13;13.37;;;;;;;-144.99;100.00;52554.09;5003830;28;20669;-76
2021/01/24 02:41:16;;;;;;;18.83;12.43;;;;;;;-144.99;100.00;52529.63;5002855;28;20836;-78
2021/01/24 02:43:44;;;;;;;16.80;12.50;;;;;;;-144.99;100.00;52505.16;5003521;28;20669;-76
2021/01/24 02:46:12;;;;;;;20.47;13.27;;;;;;;-144.99;100.00;52525.56;5006640;28;20732;-77
2021/01/24 02:48:40;;;;;;;17.93;11.33;;;;;;;-144.99;100.00;52519.44;5006032;28;20677;-76
2021/01/24 02:51:06;;;;;;;17.30;12.23;;;;;;;-144.99;100.00;52539.81;5054892;22;20683;-73
2021/01/24 02:53:34;;;;;;;16.20;11.80;;;;;;;-144.99;100.00;52515.34;5047106;28;20623;-71
2021/01/24 02:56:01;;;;;;;16.53;10.77;;;;;;;-144.99;100.00;52537.78;5045675;28;20644;-73
2021/01/24 02:58:28;;;;;;;18.23;11.60;;;;;;;-144.99;100.00;52541.84;5051250;28;20766;-73
2021/01/24 03:00:54;;;;;;;16.13;12.03;;;;;;;-144.99;100.00;52515.34;5043405;28;20707;-72
2021/01/24 03:03:20;;;;;;;17.43;11.47;;;;;;;-144.99;100.00;52545.94;5029742;28;20723;-72
2021/01/24 03:05:47;;;;;;;14.17;11.80;;;;;;;-144.99;100.00;52509.25;5029617;28;20671;-73
2021/01/24 03:08:14;;;;;;;18.43;12.10;;;;;;;-144.99;100.00;52529.63;5030372;28;20660;-73
2021/01/24 03:10:41;;;;;;;13.97;12.53;;;;;;;-144.99;100.00;52517.41;5031091;28;21103;-73
2021/01/24 03:13:12;;;;;;;15.00;10.53;;;;;;;-144.99;100.00;52501.09;5030576;28;20682;-72
2021/01/24 03:15:39;;;;;;;27.47;13.27;;;;;;;-144.99;100.00;52529.63;5028360;28;20656;-73
2021/01/24 03:18:10;;;;;;;13.60;11.00;;;;;;;-144.99;100.00;52531.66;5026420;28;20680;-72
2021/01/24 03:20:42;;;;;;;26.67;14.20;;;;;;;-144.99;100.00;52521.47;5028077;28;20702;-73
2021/01/24 03:23:11;;;;;;;24.57;15.97;;;;;;;-144.99;100.00;52501.09;5028593;28;20632;-72
2021/01/24 03:25:40;;;;;;;19.77;15.10;;;;;;;-144.99;100.00;52537.78;5029954;28;20739;-74
2021/01/24 03:28:07;;;;;;;21.07;14.00;;;;;;;-144.99;100.00;52517.41;5031253;28;20633;-74
2021/01/24 03:30:33;;;;;;;23.47;15.33;;;;;;;-144.99;100.00;52550.00;5027087;28;20996;-74
2021/01/24 03:33:00;;;;;;;26.90;15.83;;;;;;;-144.99;100.00;52537.78;5028425;28;20687;-75
2021/01/24 03:35:26;;;;;;;22.10;13.33;;;;;;;-144.99;100.00;52550.00;5028256;28;20688;-75
2021/01/24 03:37:53;;;;;;;17.60;14.50;;;;;;;-144.99;100.00;52509.25;5027576;28;21207;-74
2021/01/24 03:40:20;;;;;;;16.00;12.83;;;;;;;-144.99;100.00;52525.56;5030327;28;20727;-74
2021/01/24 03:42:46;;;;;;;17.90;13.17;;;;;;;-144.99;100.00;52517.41;5029761;28;20996;-73
2021/01/24 03:45:13;;;;;;;23.47;14.27;;;;;;;-144.99;100.00;52562.25;5038187;28;20696;-72
2021/01/24 03:47:39;;;;;;;24.93;17.20;;;;;;;-144.99;100.00;52541.84;5029803;28;21179;-73
2021/01/24 03:50:06;;;;;;;19.30;13.57;;;;;;;-144.99;100.00;52531.66;5027200;28;20958;-74
2021/01/24 03:52:32;;;;;;;22.13;13.93;;;;;;;-144.99;100.00;52545.94;5029020;28;20767;-73
2021/01/24 03:54:59;;;;;;;23.43;13.77;;;;;;;-144.99;100.00;52517.41;5030456;28;20755;-73
2021/01/24 03:57:27;;;;;;;21.87;14.20;;;;;;;-144.99;100.00;52513.31;5032301;28;20633;-74
2021/01/24 03:59:53;;;;;;;16.87;12.87;;;;;;;-144.99;100.00;52513.31;5032272;28;20656;-75
2021/01/24 04:02:20;;;;;;;21.27;13.53;;;;;;;-144.99;100.00;52545.94;5032789;28;21251;-75
2021/01/24 04:04:47;;;;;;;18.57;14.87;;;;;;;-144.99;100.00;52554.09;5030150;28;20728;-76
2021/01/24 04:07:13;;;;;;;22.70;14.23;;;;;;;-144.99;100.00;52523.50;5028073;28;20735;-74
2021/01/24 04:09:39;;;;;;;24.00;13.80;;;;;;;-144.99;100.00;52517.41;5028873;28;20639;-74
2021/01/24 04:12:06;;;;;;;16.47;11.40;;;;;;;-144.99;100.00;52519.44;5030021;28;20691;-72
2021/01/24 04:14:34;;;;;;;13.77;10.97;;;;;;;-144.99;100.00;52525.56;5027312;28;21168;-72
2021/01/24 04:17:00;;;;;;;16.70;11.83;;;;;;;-144.99;100.00;52529.63;5028171;28;20667;-72
2021/01/24 04:19:26;;;;;;;17.37;12.27;;;;;;;-144.99;100.00;52505.16;5022219;28;20717;-73
2021/01/24 04:21:52;;;;;;;16.90;12.80;;;;;;;-144.99;100.00;52533.69;5025882;28;20693;-72
2021/01/24 04:24:18;;;;;;;15.23;11.90;;;;;;;-144.99;100.00;52541.84;5026745;28;20660;-73
2021/01/24 04:26:44;;;;;;;20.20;13.90;;;;;;;-144.99;100.00;52517.41;5029090;28;21047;-74
2021/01/24 04:29:10;;;;;;;16.97;12.63;;;;;;;-144.99;100.00;52507.19;5029211;28;20625;-74
2021/01/24 04:31:37;;;;;;;16.50;12.30;;;;;;;-144.99;100.00;52545.94;5026530;28;20711;-74
2021/01/24 04:34:04;;;;;;;16.27;11.57;;;;;;;-144.99;100.00;52558.16;5027652;28;20667;-74
2021/01/24 04:36:30;;;;;;;16.57;11.37;;;;;;;-144.99;100.00;52558.16;5027992;28;20633;-73
2021/01/24 04:38:56;;;;;;;18.90;10.60;;;;;;;-144.99;100.00;52529.63;5022757;28;20675;-73
2021/01/24 04:41:23;;;;;;;20.63;14.27;;;;;;;-144.99;100.00;52476.63;5030197;28;20685;-74
2021/01/24 04:43:50;;;;;;;19.73;13.57;;;;;;;-144.99;100.00;52525.56;5030537;28;20641;-74
2021/01/24 04:46:16;;;;;;;19.87;14.20;;;;;;;-144.99;100.00;52501.09;5028501;28;21222;-73
2021/01/24 04:48:43;;;;;;;19.77;13.93;;;;;;;-144.99;100.00;52517.41;5027394;28;21074;-73
2021/01/24 04:51:11;;;;;;;20.57;13.37;;;;;;;-144.99;100.00;52517.41;5026705;28;20668;-73
2021/01/24 04:53:38;;;;;;;15.60;10.67;;;;;;;-144.99;100.00;52509.25;5029759;28;21333;-73
2021/01/24 04:56:04;;;;;;;16.27;12.57;;;;;;;-144.99;100.00;52521.47;5026103;28;20707;-73
2021/01/24 04:58:31;;;;;;;15.97;13.13;;;;;;;-144.99;100.00;52537.78;5029580;28;20728;-73
2021/01/24 05:00:58;;;;;;;18.60;13.57;;;;;;;-144.99;100.00;52513.31;5027194;28;20699;-73
2021/01/24 05:03:24;;;;;;;18.97;12.27;;;;;;;-144.99;100.00;52537.78;5026557;28;21225;-71
2021/01/24 05:05:51;;;;;;;15.63;12.13;;;;;;;-144.99;100.00;52525.56;5025713;28;20617;-71
2021/01/24 05:08:17;;;;;;;15.47;12.60;;;;;;;-144.99;100.00;52509.25;5027990;28;20796;-72
2021/01/24 05:10:46;;;;;;;17.37;12.47;;;;;;;-144.99;100.00;52541.84;5027801;28;20782;-71
2021/01/24 05:13:12;;;;;;;15.43;11.30;;;;;;;-144.99;100.00;52529.63;5029633;28;20613;-72
2021/01/24 05:15:38;;;;;;;15.67;12.10;;;;;;;-144.99;100.00;52570.38;5026999;28;20758;-72
2021/01/24 05:18:05;;;;;;;15.83;11.97;;;;;;;-144.99;100.00;52525.56;5023903;28;20732;-72
2021/01/24 05:20:32;;;;;;;20.37;12.27;;;;;;;-144.99;100.00;52533.69;5025624;28;20633;-71
2021/01/24 05:23:01;;;;;;;19.40;12.87;;;;;;;-144.99;100.00;52550.00;5030853;28;20698;-72
2021/01/24 05:25:28;;;;;;;18.40;13.10;;;;;;;-144.99;100.00;52574.47;5028137;28;20629;-72
2021/01/24 05:27:55;;;;;;;20.87;10.60;;;;;;;-144.99;100.00;52521.47;5028405;28;20682;-73
2021/01/24 05:30:22;;;;;;;13.70;11.40;;;;;;;-144.99;100.00;52501.09;5028335;28;20708;-73
2021/01/24 05:32:52;;;;;;;16.40;13.63;;;;;;;-144.99;100.00;52539.81;5027551;28;20910;-72
2021/01/24 05:35:18;;;;;;;18.07;12.30;;;;;;;-144.99;100.00;52511.28;5027555;28;20679;-72
2021/01/24 05:37:46;;;;;;;17.07;13.27;;;;;;;-144.99;100.00;52505.16;5027251;28;20633;-71
2021/01/24 05:40:14;;;;;;;20.90;13.33;;;;;;;-144.99;100.00;52519.44;5027191;28;21229;-72
2021/01/24 05:42:41;;;;;;;17.77;12.70;;;;;;;-144.99;100.00;52529.63;5027935;28;20655;-72
2021/01/24 05:45:12;;;;;;;18.70;13.80;;;;;;;-144.99;100.00;52521.47;5028435;28;21098;-72
2021/01/24 05:47:41;;;;;;;14.77;12.03;;;;;;;-144.99;100.00;52456.25;5026318;28;20651;-72
2021/01/24 05:50:12;;;;;;;15.90;12.57;;;;;;;-144.99;100.00;52550.00;5026455;28;20942;-71
2021/01/24 05:52:46;;;;;;;17.93;13.83;;;;;;;-144.99;100.00;52566.31;5028230;28;20696;-72
2021/01/24 05:55:30;;;;;;;16.73;12.07;;;;;;;-144.99;100.00;52554.09;5026815;28;20676;-72
2021/01/24 05:57:56;;;;;;;20.73;12.63;;;;;;;-144.99;100.00;52564.28;5027559;28;20898;-72
2021/01/24 06:00:23;;;;;;;16.57;12.63;;;;;;;-144.99;100.00;52478.66;5028074;28;20656;-72
2021/01/24 06:02:50;;;;;;;15.17;12.90;;;;;;;-144.99;100.00;52521.47;5026200;28;21379;-72
2021/01/24 06:05:16;;;;;;;16.27;9.33;;;;;;;-144.99;100.00;52533.69;5025034;28;20765;-72
2021/01/24 06:07:42;;;;;;;18.80;14.70;;;;;;;-144.99;100.00;52527.59;5027090;28;20706;-73
2021/01/24 06:10:09;;;;;;;15.73;12.47;;;;;;;-144.99;100.00;52525.56;5028190;28;20652;-72
2021/01/24 06:12:37;;;;;;;15.67;12.00;;;;;;;-144.99;100.00;52541.84;5027078;28;20699;-72
2021/01/24 06:15:04;;;;;;;14.73;12.37;;;;;;;-144.99;100.00;52525.56;5025393;28;20668;-73
2021/01/24 06:17:36;;;;;;;16.43;14.67;;;;;;;-144.99;100.00;52501.09;5027514;28;21245;-72
2021/01/24 06:20:05;;;;;;;13.20;11.30;;;;;;;-144.99;100.00;52554.09;5020689;28;20801;-74
2021/01/24 06:22:39;;;;;;;17.00;12.23;;;;;;;-144.99;100.00;52525.56;5023074;28;20660;-74
2021/01/24 06:25:11;;;;;;;17.43;11.97;;;;;;;-144.99;100.00;52509.25;5026568;28;20895;-75
2021/01/24 06:27:42;;;;;;;15.37;12.60;;;;;;;-144.99;100.00;52501.09;5027335;28;21250;-74
2021/01/24 06:30:11;;;;;;;18.23;14.03;;;;;;;-144.99;100.00;52509.25;5029835;28;21243;-72
2021/01/24 06:32:38;;;;;;;15.00;10.67;;;;;;;-144.99;100.00;52566.31;5031285;28;21096;-72
2021/01/24 06:35:16;;;;;;;16.83;12.27;;;;;;;-144.99;100.00;52501.09;5029056;28;20664;-72
2021/01/24 06:37:48;;;;;;;15.60;11.93;;;;;;;-144.99;100.00;52539.81;5030727;28;21099;-71
2021/01/24 06:40:24;;;;;;;15.10;12.30;;;;;;;-144.99;100.00;52501.09;5032184;28;20724;-72
2021/01/24 06:42:57;;;;;;;18.83;12.23;;;;;;;-144.99;100.00;52537.78;5024074;28;20675;-72
2021/01/24 06:45:42;;;;;;;16.63;12.67;;;;;;;-144.99;100.00;52521.47;5028627;28;21208;-71
2021/01/24 06:48:09;;;;;;;15.57;13.27;;;;;;;-144.99;100.00;52529.63;5031467;28;20711;-71
2021/01/24 06:50:37;;;;;;;17.97;13.67;;;;;;;-144.99;100.00;52480.72;5030428;28;20667;-74
2021/01/24 06:53:05;;;;;;;15.70;12.27;;;;;;;-144.99;100.00;52488.84;5032970;28;20735;-74
2021/01/24 06:55:32;;;;;;;21.67;12.77;;;;;;;-144.99;100.00;52537.78;5029759;28;20648;-73
2021/01/24 06:58:26;;;;;;;19.37;12.50;;;;;;;-144.99;100.00;52537.78;5031482;28;20624;-72
2021/01/24 07:00:53;;;;;;;20.33;13.50;;;;;;;-144.99;100.00;52537.78;5028763;28;20656;-74
2021/01/24 07:03:20;;;;;;;21.10;13.23;;;;;;;-144.99;100.00;52543.91;5030324;28;20739;-75
2021/01/24 07:05:46;;;;;;;19.43;14.27;;;;;;;-144.99;100.00;52480.72;5029629;28;20657;-73
2021/01/24 07:08:28;;;;;;;23.33;13.90;;;;;;;-144.99;100.00;52537.78;5029712;28;20737;-73
2021/01/24 07:10:55;;;;;;;28.87;15.50;;;;;;;-144.99;100.00;52541.84;5028372;28;20669;-74
2021/01/24 07:13:36;;;;;;;22.97;16.93;;;;;;;-144.99;100.00;52543.91;5029809;28;21185;-74
2021/01/24 07:16:06;;;;;;;23.13;14.90;;;;;;;-144.99;100.00;52545.94;5030152;28;20653;-75
2021/01/24 07:18:40;;;;;;;19.60;14.37;;;;;;;-144.99;100.00;52509.25;5018401;28;20644;-75
2021/01/24 07:21:06;;;;;;;27.87;15.23;;;;;;;-144.99;100.00;52545.94;5028902;28;20703;-76
2021/01/24 07:23:33;;;;;;;16.80;13.47;;;;;;;-144.99;100.00;52541.84;5030618;28;20739;-74
2021/01/24 07:26:01;;;;;;;20.27;14.83;;;;;;;-144.99;100.00;52545.94;5030357;28;20629;-74
2021/01/24 07:28:28;;;;;;;16.27;11.90;;;;;;;-144.99;100.00;52517.41;5031150;28;20620;-73
2021/01/24 07:30:59;;;;;;;18.40;12.53;;;;;;;-144.99;100.00;52566.31;5030072;28;20755;-73
2021/01/24 07:33:26;;;;;;;19.87;14.37;;;;;;;-144.99;100.00;52541.84;5029044;28;21269;-73
2021/01/24 07:35:56;;;;;;;23.67;17.80;;;;;;;-144.99;100.00;52501.09;5021042;28;21008;-74
2021/01/24 07:38:22;;;;;;;21.97;16.40;;;;;;;-144.99;100.00;52529.63;5028564;28;20653;-74
2021/01/24 07:40:52;;;;;;;24.03;13.73;;;;;;;-144.99;100.00;52517.41;5029422;28;20672;-74
2021/01/24 07:43:18;;;;;;;17.60;14.23;;;;;;;-144.99;100.00;52525.56;5028211;28;20637;-74
2021/01/24 07:45:45;;;;;;;21.57;13.03;;;;;;;-144.99;100.00;52537.78;5027512;28;20628;-74
2021/01/24 07:48:13;;;;;;;23.23;14.43;;;;;;;-144.99;100.00;52531.66;5030675;28;20660;-74
2021/01/24 07:50:39;;;;;;;20.70;12.63;;;;;;;-144.99;100.00;52525.56;5029330;28;21232;-74
2021/01/24 07:53:05;;;;;;;23.10;14.67;;;;;;;-144.99;100.00;52531.66;5031112;28;20711;-75
2021/01/24 07:55:31;;;;;;;18.87;14.90;;;;;;;-144.99;100.00;52552.03;5030189;28;21094;-72
2021/01/24 07:57:58;;;;;;;19.47;14.63;;;;;;;-144.99;100.00;52513.31;5030589;28;20702;-73
2021/01/24 08:00:25;;;;;;;19.10;14.50;;;;;;;-144.99;100.00;52533.69;5029136;28;20683;-73
2021/01/24 08:02:51;;;;;;;19.03;14.03;;;;;;;-144.99;100.00;52545.94;5028976;28;20656;-73
2021/01/24 08:05:18;;;;;;;22.13;12.33;;;;;;;-144.99;100.00;52456.25;5026261;28;20629;-74
2021/01/24 08:07:44;;;;;;;18.63;13.27;;;;;;;-144.99;100.00;52533.69;5028366;28;20678;-74
2021/01/24 08:10:11;;;;;;;21.87;14.27;;;;;;;-144.99;100.00;52574.47;5029049;28;20709;-74
2021/01/24 08:12:37;;;;;;;20.47;12.60;;;;;;;-144.99;100.00;52550.00;5028982;28;20668;-74
2021/01/24 08:15:04;;;;;;;18.40;13.67;;;;;;;-144.99;100.00;52521.47;5028355;28;21083;-74
2021/01/24 08:17:31;;;;;;;15.43;11.83;;;;;;;-144.99;100.00;52533.69;5027111;28;20720;-74
2021/01/24 08:19:59;;;;;;;19.43;12.73;;;;;;;-144.99;100.00;52541.84;5026985;28;20704;-75
2021/01/24 08:22:26;;;;;;;15.60;13.50;;;;;;;-144.99;100.00;52488.84;5024669;28;20662;-74
2021/01/24 08:24:54;;;;;;;20.50;13.80;;;;;;;-144.99;100.00;52490.91;5021880;28;20676;-73
2021/01/24 08:27:21;;;;;;;16.17;13.70;;;;;;;-144.99;100.00;52515.34;5029666;28;20983;-75
2021/01/24 08:29:47;;;;;;;23.47;15.23;;;;;;;-144.99;100.00;52517.41;5035625;28;21073;-74
2021/01/24 08:32:15;;;;;;;20.90;14.27;;;;;;;-144.99;100.00;52529.63;5035165;28;20692;-75
2021/01/24 08:34:41;;;;;;;21.00;14.50;;;;;;;-144.99;100.00;52529.63;5034013;28;20743;-75
2021/01/24 08:37:09;;;;;;;18.37;12.07;;;;;;;-144.99;100.00;52511.28;5035007;28;20648;-75
2021/01/24 08:39:36;;;;;;;18.33;12.37;;;;;;;-144.99;100.00;52492.94;5027861;28;20736;-74
2021/01/24 08:42:05;;;;;;;17.20;13.37;;;;;;;-144.99;100.00;52501.09;5027992;28;20744;-74
2021/01/24 08:44:32;;;;;;;21.57;14.33;;;;;;;-144.99;100.00;52509.25;5029232;28;20613;-74
2021/01/24 08:47:03;;;;;;;18.87;16.03;;;;;;;-144.99;100.00;52525.56;5029107;28;20635;-74
2021/01/24 08:49:30;;;;;;;26.23;23.07;;;;;;;-144.99;100.00;52521.47;5022206;28;20661;-75
2021/01/24 08:51:57;;;;;;;21.10;16.77;;;;;;;-144.99;100.00;52517.41;5028677;28;20783;-75
2021/01/24 08:54:26;;;;;;;24.07;17.60;;;;;;;-144.99;100.00;52515.34;5028401;28;20732;-74
2021/01/24 08:57:09;;;;;;;21.70;16.17;;;;;;;-144.99;100.00;52492.94;5027689;28;21182;-74
2021/01/24 08:59:36;;;;;;;23.07;17.93;;;;;;;-144.99;100.00;52521.47;5026201;28;21205;-73
2021/01/24 09:02:02;;;;;;;35.47;21.60;;;;;;;-144.99;100.00;52517.41;5029164;28;20657;-75
2021/01/24 09:04:32;;;;;;;28.27;19.70;;;;;;;-144.99;100.00;52521.47;5023567;28;20621;-75
2021/01/24 09:07:10;;;;;;;26.33;19.43;;;;;;;-144.99;100.00;52521.47;5028285;28;20636;-74
2021/01/24 09:09:41;;;;;;;22.10;16.17;;;;;;;-144.99;100.00;52505.16;5026096;28;20636;-74
2021/01/24 09:12:11;;;;;;;23.17;16.97;;;;;;;-144.99;100.00;52505.16;5030012;28;20975;-73
2021/01/24 09:14:38;;;;;;;22.70;17.33;;;;;;;-144.99;100.00;52492.94;5028391;28;20628;-74
2021/01/24 09:17:10;;;;;;;25.20;17.40;;;;;;;-144.99;100.00;52545.94;5028188;28;20632;-74
2021/01/24 09:19:38;;;;;;;21.10;17.53;;;;;;;-144.99;100.00;52517.41;5026719;28;20647;-73
2021/01/24 09:22:06;;;;;;;26.23;17.10;;;;;;;-144.99;100.00;52476.63;5035924;28;20716;-74
2021/01/24 09:24:32;;;;;;;22.07;15.03;;;;;;;-144.99;100.00;52525.56;5026483;28;20711;-73
2021/01/24 09:26:58;;;;;;;39.50;21.13;;;;;;;-144.99;100.00;52484.78;5024624;28;20786;-74
2021/01/24 09:29:26;;;;;;;22.00;19.53;;;;;;;-144.99;100.00;52547.97;5029093;28;20715;-73
2021/01/24 09:31:52;;;;;;;35.73;21.90;;;;;;;-144.99;100.00;52470.50;5024026;28;20699;-75
2021/01/24 09:34:18;;;;;;;28.93;19.90;;;;;;;-144.99;100.00;52513.31;5025964;28;21231;-73
2021/01/24 09:36:44;;;;;;;20.83;16.97;;;;;;;-144.99;100.00;52476.63;5026405;28;20645;-74
2021/01/24 09:39:10;;;;;;;24.67;18.73;;;;;;;-144.99;100.00;52488.84;5027248;28;20673;-76
2021/01/24 09:41:36;;;;;;;23.33;17.73;;;;;;;-144.99;100.00;52513.31;5026501;28;20703;-75
2021/01/24 09:44:04;;;;;;;21.83;16.77;;;;;;;-144.99;100.00;52541.84;5025501;28;20744;-74
2021/01/24 09:46:31;;;;;;;18.40;14.87;;;;;;;-144.99;100.00;52513.31;5020219;28;20721;-74
2021/01/24 09:48:57;;;;;;;26.53;17.73;;;;;;;-144.99;100.00;52521.47;5023200;28;20720;-74
2021/01/24 09:51:24;;;;;;;22.30;15.43;;;;;;;-144.99;100.00;52492.94;5025420;28;20784;-74
2021/01/24 09:53:51;;;;;;;22.50;15.60;;;;;;;-144.99;100.00;52547.97;5029458;28;20648;-73
2021/01/24 09:56:18;;;;;;;24.03;17.43;;;;;;;-144.99;100.00;52554.09;5027410;28;22496;-73
2021/01/24 09:58:44;;;;;;;20.47;14.83;;;;;;;-144.99;100.00;52497.00;5025990;28;20639;-73
2021/01/24 10:01:10;;;;;;;22.40;15.73;;;;;;;-144.99;100.00;52499.06;5034619;28;20755;-75
2021/01/24 10:03:38;;;;;;;23.37;15.37;;;;;;;-144.99;100.00;52527.59;5033442;28;21055;-73
2021/01/24 10:06:04;;;;;;;18.47;13.87;;;;;;;-144.99;100.00;52525.56;5030999;28;20661;-74
2021/01/24 10:08:30;;;;;;;19.10;16.47;;;;;;;-144.99;100.00;52503.13;5027932;28;20716;-73
2021/01/24 10:10:57;;;;;;;19.73;15.20;;;;;;;-144.99;100.00;52541.84;5032705;28;20637;-73
2021/01/24 10:13:23;;;;;;;24.13;17.33;;;;;;;-144.99;100.00;52521.47;5032280;28;20731;-74
2021/01/24 10:15:51;;;;;;;17.37;14.40;;;;;;;-144.99;100.00;52488.84;5032124;28;20729;-75
2021/01/24 10:18:18;;;;;;;21.17;14.53;;;;;;;-144.99;100.00;52488.84;5021793;28;20621;-74
2021/01/24 10:20:45;;;;;;;18.33;14.07;;;;;;;-144.99;100.00;52468.47;5031503;28;20801;-72
2021/01/24 10:23:11;;;;;;;21.37;15.50;;;;;;;-144.99;100.00;52501.09;5030410;28;20636;-73
2021/01/24 10:25:38;;;;;;;20.87;16.13;;;;;;;-144.99;100.00;52529.63;5030900;28;20632;-75
2021/01/24 10:28:04;;;;;;;21.47;14.97;;;;;;;-144.99;100.00;52533.69;5027017;28;21042;-74
2021/01/24 10:30:30;;;;;;;19.73;15.27;;;;;;;-144.99;100.00;52521.47;5030838;28;20660;-74
2021/01/24 10:32:57;;;;;;;24.50;16.63;;;;;;;-144.99;100.00;52517.41;5031985;28;20698;-74
2021/01/24 10:35:23;;;;;;;18.97;15.10;;;;;;;-144.99;100.00;52509.25;5029237;28;21224;-73
2021/01/24 10:37:50;;;;;;;23.37;15.57;;;;;;;-144.99;100.00;52509.25;5033504;28;20724;-73
2021/01/24 10:40:16;;;;;;;18.93;14.60;;;;;;;-144.99;100.00;52501.09;5029509;28;20663;-71
2021/01/24 10:42:44;;;;;;;20.57;15.57;;;;;;;-144.99;100.00;52505.16;5032316;28;20649;-75
2021/01/24 10:45:11;;;;;;;19.07;15.50;;;;;;;-144.99;100.00;52492.94;5032122;28;20750;-73
2021/01/24 10:47:38;;;;;;;15.67;13.70;;;;;;;-144.99;100.00;52537.78;5018936;28;20632;-74
2021/01/24 10:50:07;;;;;;;21.80;15.40;;;;;;;-144.99;100.00;52456.25;5029343;28;20736;-73
2021/01/24 10:52:33;;;;;;;18.27;13.67;;;;;;;-144.99;100.00;52521.47;5032269;28;21079;-74
2021/01/24 10:55:00;;;;;;;20.47;15.13;;;;;;;-144.99;100.00;52480.72;5019630;28;20680;-73
2021/01/24 10:57:26;;;;;;;17.83;13.70;;;;;;;-144.99;100.00;52517.41;5031303;28;20726;-73